Waasa, Minnesota
Current Conditions -  °F | °C
As of 4:53 PM on Tuesday 27 Jan 2015 (Local Time) from KELO Reporting Station
Overcast Overcast  
Wind Chill: 21°   Ceiling: 1100
Heat Index: 27°   Visibility: 10mi
Dew Point: 23°   Wind: 5mph
Humidity: 86%   Direction: 160°SSE
Pressure: 30.1"   Gusts: NA
Location:  47.691°N, 92.2161°W
Report Text: KELO 272253Z AUTO 16004KT 10SM OVC011 M03/M05 A3010 RMK AO2
Loading
Personal Weather Stations






























Interactive Weather Map New forecast layout! Learn more

10-Day Weather Forecast

Advertisements
Track Severe Weather on mobile